createdAt,value
2023-04-22T00:00:27.637Z,4.36
2023-04-22T00:01:27.626Z,4.43
2023-04-22T00:02:27.709Z,4.32
2023-04-22T00:03:27.800Z,4.25
2023-04-22T00:04:27.758Z,4.39
2023-04-22T00:05:27.688Z,4.28
2023-04-22T00:06:27.565Z,4.28
2023-04-22T00:07:27.549Z,4.26
2023-04-22T00:08:27.534Z,4.25
2023-04-22T00:09:27.556Z,4.25
2023-04-22T00:10:27.530Z,4.32
2023-04-22T00:11:27.516Z,4.18
2023-04-22T00:12:27.503Z,4.14
2023-04-22T00:13:27.481Z,4.24
2023-04-22T00:14:27.475Z,4.29
2023-04-22T00:15:27.476Z,4.16
2023-04-22T00:16:27.538Z,4.25
2023-04-22T00:17:27.467Z,4.18
2023-04-22T00:18:27.442Z,4.13
2023-04-22T00:19:27.422Z,4.20
2023-04-22T00:20:27.410Z,4.13
2023-04-22T00:21:27.453Z,4.10
2023-04-22T00:22:27.392Z,4.14
2023-04-22T00:23:27.427Z,4.31
2023-04-22T00:24:27.415Z,4.04
2023-04-22T00:25:27.378Z,4.21
2023-04-22T00:26:27.362Z,4.11
2023-04-22T00:27:27.341Z,4.17
2023-04-22T00:28:27.338Z,4.11
2023-04-22T00:29:27.331Z,4.24
2023-04-22T00:30:27.316Z,4.24
2023-04-22T00:31:27.360Z,4.25
2023-04-22T00:32:27.297Z,4.18
2023-04-22T00:33:27.323Z,4.28
2023-04-22T00:34:27.257Z,4.24
2023-04-22T00:35:27.269Z,4.20
2023-04-22T00:36:27.244Z,4.28
2023-04-22T00:37:27.243Z,4.24
2023-04-22T00:38:27.209Z,4.07
2023-04-22T00:39:27.226Z,4.10
2023-04-22T00:40:27.192Z,4.04
2023-04-22T00:41:27.208Z,4.18
2023-04-22T00:42:27.224Z,4.25
2023-04-22T00:43:27.191Z,3.98
2023-04-22T00:44:27.145Z,4.04
2023-04-22T00:45:27.158Z,4.14
2023-04-22T00:46:27.220Z,4.00
2023-04-22T00:47:27.236Z,4.04
2023-04-22T00:48:28.884Z,4.02
2023-04-22T00:49:27.101Z,4.13
2023-04-22T00:50:27.090Z,4.04
2023-04-22T00:51:27.072Z,3.90
2023-04-22T00:52:27.061Z,4.00
2023-04-22T00:53:27.064Z,4.04
2023-04-22T00:54:27.052Z,4.07
2023-04-22T00:55:27.041Z,3.93
2023-04-22T00:56:27.023Z,3.98
2023-04-22T00:57:27.030Z,3.93
2023-04-22T00:58:26.997Z,4.04
2023-04-22T00:59:26.987Z,3.92
2023-04-22T01:00:27.186Z,4.04
2023-04-22T01:01:27.177Z,3.95
2023-04-22T01:02:27.199Z,4.06
2023-04-22T01:03:27.075Z,4.06
2023-04-22T01:04:26.981Z,3.96
2023-04-22T01:05:26.933Z,4.00
2023-04-22T01:06:26.918Z,3.92
2023-04-22T01:07:26.909Z,4.06
2023-04-22T01:08:26.893Z,4.13
2023-04-22T01:09:26.880Z,3.92
2023-04-22T01:10:26.866Z,3.96
2023-04-22T01:11:26.880Z,3.95
2023-04-22T01:12:26.853Z,3.93
2023-04-22T01:13:26.894Z,3.95
2023-04-22T01:14:26.823Z,3.92
2023-04-22T01:15:26.826Z,3.95
2023-04-22T01:16:26.817Z,4.00
2023-04-22T01:17:26.845Z,3.89
2023-04-22T01:18:26.792Z,3.93
2023-04-22T01:19:26.774Z,3.90
2023-04-22T01:20:26.777Z,3.96
2023-04-22T01:21:26.770Z,3.86
2023-04-22T01:22:26.737Z,3.93
2023-04-22T01:23:26.756Z,3.95
2023-04-22T01:24:26.719Z,4.00
2023-04-22T01:25:26.740Z,3.82
2023-04-22T01:26:26.695Z,3.95
2023-04-22T01:27:26.690Z,3.99
2023-04-22T01:28:26.692Z,3.88
2023-04-22T01:29:26.696Z,3.98
2023-04-22T01:30:26.658Z,3.89
2023-04-22T01:31:26.664Z,3.90
2023-04-22T01:32:26.879Z,3.92
2023-04-22T01:33:26.634Z,3.93
2023-04-22T01:34:26.617Z,3.95
2023-04-22T01:35:26.605Z,4.07
2023-04-22T01:36:26.595Z,3.92
2023-04-22T01:37:26.571Z,3.95
2023-04-22T01:38:26.587Z,3.96
2023-04-22T01:39:26.568Z,4.06
2023-04-22T01:40:26.564Z,4.07
2023-04-22T01:41:26.532Z,4.06
2023-04-22T01:42:26.540Z,3.98
2023-04-22T01:43:26.521Z,4.10
2023-04-22T01:44:26.514Z,4.07
2023-04-22T01:45:26.525Z,4.10
2023-04-22T01:46:26.639Z,4.08
2023-04-22T01:47:26.467Z,4.16
2023-04-22T01:48:26.479Z,4.08
2023-04-22T01:49:26.476Z,4.06
2023-04-22T01:50:26.462Z,4.11
2023-04-22T01:51:26.429Z,4.16
2023-04-22T01:52:26.444Z,4.07
2023-04-22T01:53:26.413Z,4.02
2023-04-22T01:54:26.411Z,3.95
2023-04-22T01:55:26.404Z,4.02
2023-04-22T01:56:26.378Z,4.08
2023-04-22T01:57:26.383Z,4.06
2023-04-22T01:58:26.361Z,4.10
2023-04-22T01:59:26.344Z,4.06
2023-04-22T02:00:26.355Z,3.96
2023-04-22T02:01:26.434Z,3.95
2023-04-22T02:02:26.409Z,3.93
2023-04-22T02:03:26.430Z,3.99
2023-04-22T02:04:26.284Z,4.04
2023-04-22T02:05:26.273Z,3.90
2023-04-22T02:06:26.322Z,3.89
2023-04-22T02:07:26.264Z,3.99
2023-04-22T02:08:26.257Z,4.07
2023-04-22T02:09:26.238Z,3.98
2023-04-22T02:10:26.224Z,3.80
2023-04-22T02:11:26.219Z,3.93
2023-04-22T02:12:26.252Z,3.84
2023-04-22T02:13:26.191Z,3.90
2023-04-22T02:14:26.178Z,3.82
2023-04-22T02:15:26.183Z,3.77
2023-04-22T02:16:26.308Z,3.89
2023-04-22T02:17:26.163Z,3.86
2023-04-22T02:18:26.152Z,3.93
2023-04-22T02:19:26.176Z,3.88
2023-04-22T02:20:26.111Z,3.92
2023-04-22T02:21:26.101Z,3.84
2023-04-22T02:22:26.109Z,3.71
2023-04-22T02:23:26.086Z,3.84
2023-04-22T02:24:26.069Z,3.81
2023-04-22T02:25:26.058Z,3.74
2023-04-22T02:26:26.098Z,3.74
2023-04-22T02:27:26.049Z,3.78
2023-04-22T02:28:26.035Z,3.77
2023-04-22T02:29:26.013Z,3.77
2023-04-22T02:30:26.017Z,3.75
2023-04-22T02:31:26.028Z,3.82
2023-04-22T02:32:26.001Z,3.80
2023-04-22T02:33:25.991Z,3.82
2023-04-22T02:34:25.963Z,3.77
2023-04-22T02:35:25.953Z,3.82
2023-04-22T02:36:25.950Z,3.75
2023-04-22T02:37:25.940Z,3.86
2023-04-22T02:38:25.932Z,3.77
2023-04-22T02:39:25.928Z,3.89
2023-04-22T02:40:25.896Z,3.81
2023-04-22T02:41:25.892Z,3.89
2023-04-22T02:42:25.902Z,3.82
2023-04-22T02:43:25.872Z,3.89
2023-04-22T02:44:25.855Z,3.80
2023-04-22T02:45:25.852Z,3.71
2023-04-22T02:46:25.947Z,3.72
2023-04-22T02:47:25.897Z,3.82
2023-04-22T02:48:25.821Z,3.80
2023-04-22T02:49:25.825Z,3.60
2023-04-22T02:50:25.797Z,3.62
2023-04-22T02:51:25.792Z,3.63
2023-04-22T02:52:25.784Z,3.62
2023-04-22T02:53:25.770Z,3.71
2023-04-22T02:54:25.755Z,3.72
2023-04-22T02:55:25.773Z,3.63
2023-04-22T02:56:25.733Z,3.74
2023-04-22T02:57:25.717Z,3.72
2023-04-22T02:58:25.732Z,3.64
2023-04-22T02:59:25.700Z,3.63
2023-04-22T03:00:25.737Z,3.63
2023-04-22T03:01:25.813Z,3.62
2023-04-22T03:02:25.824Z,3.75
2023-04-22T03:03:25.863Z,3.54
2023-04-22T03:04:25.924Z,3.62
2023-04-22T03:05:25.668Z,3.64
2023-04-22T03:06:25.632Z,3.64
2023-04-22T03:07:25.630Z,3.54
2023-04-22T03:08:25.592Z,3.60
2023-04-22T03:09:25.594Z,3.60
2023-04-22T03:10:25.592Z,3.63
2023-04-22T03:11:25.581Z,3.70
2023-04-22T03:12:25.562Z,3.59
2023-04-22T03:13:25.572Z,3.64
2023-04-22T03:14:25.529Z,3.53
2023-04-22T03:15:25.530Z,3.59
2023-04-22T03:16:25.541Z,3.68
2023-04-22T03:17:25.562Z,3.63
2023-04-22T03:18:25.492Z,3.57
2023-04-22T03:19:25.499Z,3.59
2023-04-22T03:20:25.473Z,3.54
2023-04-22T03:21:25.486Z,3.59
2023-04-22T03:22:25.454Z,3.49
2023-04-22T03:23:25.486Z,3.54
2023-04-22T03:24:25.426Z,3.56
2023-04-22T03:25:25.426Z,3.57
2023-04-22T03:26:25.405Z,3.45
2023-04-22T03:27:25.407Z,3.64
2023-04-22T03:28:25.417Z,3.67
2023-04-22T03:29:25.390Z,3.54
2023-04-22T03:30:25.373Z,3.59
2023-04-22T03:31:25.389Z,3.62
2023-04-22T03:32:25.349Z,3.72
2023-04-22T03:33:25.341Z,3.84
2023-04-22T03:34:25.336Z,3.60
2023-04-22T03:35:25.359Z,3.67
2023-04-22T03:36:25.295Z,3.74
2023-04-22T03:37:25.314Z,3.70
2023-04-22T03:38:25.301Z,3.68
2023-04-22T03:39:25.279Z,3.64
2023-04-22T03:40:25.261Z,3.57
2023-04-22T03:41:25.256Z,3.56
2023-04-22T03:42:25.239Z,3.50
2023-04-22T03:43:25.241Z,3.54
2023-04-22T03:44:25.207Z,3.54
2023-04-22T03:45:25.224Z,3.44
2023-04-22T03:46:25.262Z,3.56
2023-04-22T03:47:25.225Z,3.53
2023-04-22T03:48:25.187Z,3.50
2023-04-22T03:49:25.163Z,3.57
2023-04-22T03:50:25.155Z,3.57
2023-04-22T03:51:25.153Z,3.50
2023-04-22T03:52:25.151Z,3.44
2023-04-22T03:53:25.148Z,3.57
2023-04-22T03:54:25.118Z,3.52
2023-04-22T03:55:25.108Z,3.50
2023-04-22T03:56:25.084Z,3.52
2023-04-22T03:57:25.074Z,3.49
2023-04-22T03:58:25.078Z,3.52
2023-04-22T03:59:25.060Z,3.50
2023-04-22T04:00:25.055Z,3.45
2023-04-22T04:01:25.028Z,3.45
2023-04-22T04:02:25.121Z,3.50
2023-04-22T04:03:26.710Z,3.46
2023-04-22T04:04:25.446Z,3.44
2023-04-22T04:05:25.113Z,3.42
2023-04-22T04:06:24.985Z,3.52
2023-04-22T04:07:24.974Z,3.39
2023-04-22T04:08:24.961Z,3.42
2023-04-22T04:09:24.999Z,3.45
2023-04-22T04:10:24.951Z,3.42
2023-04-22T04:11:24.931Z,3.49
2023-04-22T04:12:24.907Z,3.46
2023-04-22T04:13:24.907Z,3.37
2023-04-22T04:14:24.920Z,3.39
2023-04-22T04:15:24.909Z,3.53
2023-04-22T04:16:24.975Z,3.46
2023-04-22T04:17:24.953Z,3.44
2023-04-22T04:18:24.856Z,3.44
2023-04-22T04:19:24.836Z,3.44
2023-04-22T04:20:24.856Z,3.31
2023-04-22T04:21:24.840Z,3.26
2023-04-22T04:22:24.824Z,3.34
2023-04-22T04:23:24.805Z,3.28
2023-04-22T04:24:24.794Z,3.33
2023-04-22T04:25:24.805Z,3.37
2023-04-22T04:26:24.775Z,3.46
2023-04-22T04:27:24.745Z,3.46
2023-04-22T04:28:24.748Z,3.33
2023-04-22T04:29:24.733Z,3.44
2023-04-22T04:30:24.758Z,3.46
2023-04-22T04:31:24.974Z,3.42
2023-04-22T04:32:24.761Z,3.39
2023-04-22T04:33:24.692Z,3.33
2023-04-22T04:34:24.672Z,3.33
2023-04-22T04:35:24.684Z,3.37
2023-04-22T04:36:24.647Z,3.39
2023-04-22T04:37:24.639Z,3.19
2023-04-22T04:38:24.640Z,3.26
2023-04-22T04:39:24.616Z,3.13
2023-04-22T04:40:24.608Z,3.20
2023-04-22T04:41:24.633Z,3.33
2023-04-22T04:42:24.650Z,3.42
2023-04-22T04:43:24.574Z,3.44
2023-04-22T04:44:24.568Z,3.60
2023-04-22T04:45:24.554Z,3.34
2023-04-22T04:46:24.588Z,3.30
2023-04-22T04:47:24.553Z,3.16
2023-04-22T04:48:24.541Z,3.25
2023-04-22T04:49:24.516Z,3.30
2023-04-22T04:50:24.547Z,3.35
2023-04-22T04:51:24.501Z,3.33
2023-04-22T04:52:24.505Z,3.44
2023-04-22T04:53:24.479Z,3.50
2023-04-22T04:54:24.458Z,3.53
2023-04-22T04:55:24.447Z,3.54
2023-04-22T04:56:24.439Z,3.39
2023-04-22T04:57:24.465Z,3.45
2023-04-22T04:58:24.431Z,3.59
2023-04-22T04:59:24.405Z,3.49
2023-04-22T05:00:24.395Z,3.39
2023-04-22T05:01:24.420Z,3.67
2023-04-22T05:02:24.583Z,3.63
2023-04-22T05:03:24.475Z,3.64
2023-04-22T05:04:24.576Z,3.67
2023-04-22T05:05:24.360Z,3.80
2023-04-22T05:06:24.335Z,3.63
2023-04-22T05:07:24.320Z,3.70
2023-04-22T05:08:24.328Z,3.56
2023-04-22T05:09:24.301Z,3.74
2023-04-22T05:10:24.362Z,3.80
2023-04-22T05:11:24.284Z,3.71
2023-04-22T05:12:24.264Z,3.77
2023-04-22T05:13:24.282Z,3.82
2023-04-22T05:14:24.254Z,3.88
2023-04-22T05:15:24.270Z,4.08
2023-04-22T05:16:24.310Z,4.16
2023-04-22T05:17:24.263Z,4.10
2023-04-22T05:18:24.225Z,4.26
2023-04-22T05:19:24.194Z,4.53
2023-04-22T05:20:24.204Z,4.99
2023-04-22T05:21:24.178Z,5.37
2023-04-22T05:22:24.167Z,5.85
2023-04-22T05:23:24.159Z,6.16
2023-04-22T05:24:24.156Z,6.53
2023-04-22T05:25:24.125Z,6.63
2023-04-22T05:26:24.180Z,6.75
2023-04-22T05:27:24.104Z,7.05
2023-04-22T05:28:24.095Z,7.09
2023-04-22T05:29:24.127Z,6.96
2023-04-22T05:30:24.079Z,6.97
2023-04-22T05:31:24.093Z,7.04
2023-04-22T05:32:24.246Z,7.12
2023-04-22T05:33:24.041Z,7.42
2023-04-22T05:34:24.034Z,7.41
2023-04-22T05:35:24.039Z,7.42
2023-04-22T05:36:24.008Z,7.55
2023-04-22T05:37:23.996Z,7.58
2023-04-22T05:38:24.009Z,7.50
2023-04-22T05:39:23.976Z,7.50
2023-04-22T05:40:23.970Z,7.15
2023-04-22T05:41:23.954Z,6.79
2023-04-22T05:42:23.948Z,6.91
2023-04-22T05:43:23.931Z,7.19
2023-04-22T05:44:23.937Z,7.24
2023-04-22T05:45:23.942Z,7.50
2023-04-22T05:46:24.022Z,7.74
2023-04-22T05:47:23.996Z,7.39
2023-04-22T05:48:23.885Z,7.11
2023-04-22T05:49:23.872Z,6.87
2023-04-22T05:50:23.856Z,6.94
2023-04-22T05:51:23.871Z,7.00
2023-04-22T05:52:23.839Z,7.15
2023-04-22T05:53:23.825Z,7.08
2023-04-22T05:54:23.818Z,6.75
2023-04-22T05:55:23.806Z,6.99
2023-04-22T05:56:23.797Z,6.99
2023-04-22T05:57:23.791Z,6.91
2023-04-22T05:58:23.776Z,7.04
2023-04-22T05:59:23.754Z,7.29
2023-04-22T06:00:23.741Z,7.50
2023-04-22T06:01:23.866Z,7.52
2023-04-22T06:02:23.868Z,7.47
2023-04-22T06:03:24.097Z,7.26
2023-04-22T06:04:24.146Z,6.99
2023-04-22T06:05:23.814Z,6.89
2023-04-22T06:06:23.683Z,6.79
2023-04-22T06:07:23.683Z,6.76
2023-04-22T06:08:23.658Z,6.73
2023-04-22T06:09:23.659Z,6.76
2023-04-22T06:10:23.662Z,6.68
2023-04-22T06:11:23.622Z,6.61
2023-04-22T06:12:23.616Z,6.46
2023-04-22T06:13:23.619Z,6.38
2023-04-22T06:14:23.595Z,6.36
2023-04-22T06:15:23.575Z,6.45
2023-04-22T06:16:23.574Z,6.63
2023-04-22T06:17:23.624Z,6.73
2023-04-22T06:18:23.752Z,6.94
2023-04-22T06:19:23.544Z,7.05
2023-04-22T06:20:23.529Z,7.37
2023-04-22T06:21:23.521Z,7.71
2023-04-22T06:22:23.517Z,8.20
2023-04-22T06:23:23.498Z,8.36
2023-04-22T06:24:23.542Z,8.49
2023-04-22T06:25:23.475Z,8.60
2023-04-22T06:26:23.460Z,8.61
2023-04-22T06:27:23.451Z,8.65
2023-04-22T06:28:23.452Z,8.61
2023-04-22T06:29:23.448Z,8.34
2023-04-22T06:30:23.414Z,8.50
2023-04-22T06:31:23.426Z,8.58
2023-04-22T06:32:23.400Z,8.85
2023-04-22T06:33:23.414Z,9.01
2023-04-22T06:34:23.389Z,8.78
2023-04-22T06:35:23.365Z,8.45
2023-04-22T06:36:23.353Z,8.36
2023-04-22T06:37:23.354Z,8.57
2023-04-22T06:38:23.341Z,8.64
2023-04-22T06:39:23.346Z,8.49
2023-04-22T06:40:23.317Z,8.67
2023-04-22T06:41:23.300Z,8.76
2023-04-22T06:42:23.290Z,8.89
2023-04-22T06:43:23.275Z,9.08
2023-04-22T06:44:23.326Z,9.10
2023-04-22T06:45:23.270Z,9.01
2023-04-22T06:46:23.322Z,9.12
2023-04-22T06:47:23.280Z,9.24
2023-04-22T06:48:23.239Z,9.26
2023-04-22T06:49:23.247Z,8.93
2023-04-22T06:50:23.216Z,8.91
2023-04-22T06:51:23.202Z,8.68
2023-04-22T06:52:24.259Z,8.76
2023-04-22T06:53:23.177Z,8.70
2023-04-22T06:54:23.167Z,8.80
2023-04-22T06:55:23.150Z,8.75
2023-04-22T06:56:23.139Z,8.85
2023-04-22T06:57:23.132Z,8.80
2023-04-22T06:58:23.141Z,8.75
2023-04-22T06:59:23.124Z,9.03
2023-04-22T07:00:23.112Z,9.17
2023-04-22T07:01:23.133Z,9.40
2023-04-22T07:02:23.157Z,9.40
2023-04-22T07:03:23.304Z,9.45
2023-04-22T07:04:23.101Z,9.52
2023-04-22T07:05:23.087Z,9.38
2023-04-22T07:06:23.041Z,9.32
2023-04-22T07:07:23.035Z,9.22
2023-04-22T07:08:23.011Z,9.22
2023-04-22T07:09:23.006Z,9.23
2023-04-22T07:10:23.004Z,9.32
2023-04-22T07:11:23.002Z,9.22
2023-04-22T07:12:22.969Z,9.20
2023-04-22T07:13:22.962Z,9.10
2023-04-22T07:14:22.943Z,9.22
2023-04-22T07:15:22.936Z,9.44
2023-04-22T07:16:22.971Z,9.68
2023-04-22T07:17:22.988Z,9.59
2023-04-22T07:18:22.902Z,9.55
2023-04-22T07:19:22.893Z,9.70
2023-04-22T07:20:22.882Z,9.77
2023-04-22T07:21:22.917Z,9.86
2023-04-22T07:22:22.877Z,10.07
2023-04-22T07:23:22.851Z,10.29
2023-04-22T07:24:22.835Z,10.11
2023-04-22T07:25:22.823Z,10.18
2023-04-22T07:26:22.815Z,10.13
2023-04-22T07:27:22.811Z,10.13
2023-04-22T07:28:22.804Z,10.16
2023-04-22T07:29:22.780Z,10.02
2023-04-22T07:30:22.775Z,9.93
2023-04-22T07:31:22.842Z,9.83
2023-04-22T07:32:22.776Z,9.83
2023-04-22T07:33:22.743Z,9.81
2023-04-22T07:34:22.725Z,9.73
2023-04-22T07:35:22.708Z,9.55
2023-04-22T07:36:22.703Z,9.45
2023-04-22T07:37:22.737Z,9.38
2023-04-22T07:38:22.682Z,9.41
2023-04-22T07:39:22.710Z,9.37
2023-04-22T07:40:22.660Z,9.40
2023-04-22T07:41:22.650Z,9.44
2023-04-22T07:42:22.632Z,9.53
2023-04-22T07:43:22.652Z,9.44
2023-04-22T07:44:22.614Z,9.59
2023-04-22T07:45:22.601Z,9.63
2023-04-22T07:46:22.698Z,9.70
2023-04-22T07:47:22.648Z,9.75
2023-04-22T07:48:22.575Z,10.04
2023-04-22T07:49:22.567Z,10.42
2023-04-22T07:50:22.555Z,10.69
2023-04-22T07:51:22.539Z,10.83
2023-04-22T07:52:22.537Z,10.88
2023-04-22T07:53:22.549Z,10.65
2023-04-22T07:54:22.502Z,10.88
2023-04-22T07:55:22.493Z,10.72
2023-04-22T07:56:22.474Z,10.75
2023-04-22T07:57:22.528Z,10.91
2023-04-22T07:58:22.454Z,10.88
2023-04-22T07:59:22.447Z,10.88
2023-04-22T08:00:22.445Z,11.08
2023-04-22T08:01:22.474Z,11.03
2023-04-22T08:02:22.509Z,10.95
2023-04-22T08:03:22.693Z,10.91
2023-04-22T08:04:22.790Z,11.09
2023-04-22T08:05:22.413Z,11.39
2023-04-22T08:06:22.391Z,11.42
2023-04-22T08:08:22.370Z,11.51
2023-04-22T08:09:22.372Z,11.36
2023-04-22T08:10:22.330Z,11.54
2023-04-22T08:11:22.340Z,11.51
2023-04-22T08:12:22.323Z,11.59
2023-04-22T08:13:22.318Z,11.53
2023-04-22T08:14:22.289Z,11.87
2023-04-22T08:15:22.295Z,11.93
2023-04-22T08:16:22.373Z,12.30
2023-04-22T08:17:22.376Z,12.25
2023-04-22T08:18:22.258Z,12.07
2023-04-22T08:19:22.234Z,12.15
2023-04-22T08:20:22.273Z,11.94
2023-04-22T08:21:22.218Z,12.40
2023-04-22T08:22:22.212Z,12.51
2023-04-22T08:23:22.196Z,12.46
2023-04-22T08:24:22.187Z,12.77
2023-04-22T08:25:22.187Z,12.98
2023-04-22T08:26:22.156Z,12.71
2023-04-22T08:27:22.174Z,12.46
2023-04-22T08:28:22.134Z,11.96
2023-04-22T08:29:22.119Z,12.16
2023-04-22T08:30:22.145Z,12.46
2023-04-22T08:31:22.144Z,12.52
2023-04-22T08:32:22.146Z,12.33
2023-04-22T08:33:22.098Z,12.62
2023-04-22T08:34:22.069Z,12.74
2023-04-22T08:35:22.067Z,12.94
2023-04-22T08:36:22.072Z,12.98
2023-04-22T08:37:22.056Z,12.73
2023-04-22T08:38:22.038Z,12.84
2023-04-22T08:39:22.032Z,12.74
2023-04-22T08:40:22.054Z,13.10
2023-04-22T08:41:22.040Z,13.28
2023-04-22T08:42:21.980Z,13.38
2023-04-22T08:43:21.978Z,13.32
2023-04-22T08:44:21.997Z,13.10
2023-04-22T08:45:21.955Z,13.09
2023-04-22T08:46:21.962Z,12.74
2023-04-22T08:47:21.948Z,12.52
2023-04-22T08:48:21.919Z,12.51
2023-04-22T08:49:21.920Z,12.51
2023-04-22T08:50:21.922Z,12.77
2023-04-22T08:51:21.882Z,13.14
2023-04-22T08:52:21.890Z,12.99
2023-04-22T08:53:24.385Z,13.06
2023-04-22T08:54:21.850Z,13.09
2023-04-22T08:55:21.836Z,12.91
2023-04-22T08:56:21.848Z,12.94
2023-04-22T08:57:22.020Z,12.88
2023-04-22T08:58:21.828Z,12.99
2023-04-22T08:59:21.798Z,13.01
2023-04-22T09:00:21.781Z,13.29
2023-04-22T09:01:21.880Z,13.13
2023-04-22T09:02:21.806Z,12.80
2023-04-22T09:03:21.819Z,12.70
2023-04-22T09:04:21.838Z,12.91
2023-04-22T09:05:21.727Z,12.99
2023-04-22T09:06:21.723Z,12.98
2023-04-22T09:07:21.707Z,12.99
2023-04-22T09:08:21.709Z,13.04
2023-04-22T09:09:21.686Z,12.99
2023-04-22T09:10:21.687Z,12.89
2023-04-22T09:11:21.665Z,12.99
2023-04-22T09:12:21.652Z,13.07
2023-04-22T09:13:21.667Z,12.73
2023-04-22T09:14:21.642Z,12.87
2023-04-22T09:15:21.627Z,12.62
2023-04-22T09:16:21.650Z,12.59
2023-04-22T09:17:21.632Z,12.89
2023-04-22T09:18:21.592Z,12.92
2023-04-22T09:19:21.591Z,12.98
2023-04-22T09:20:21.563Z,13.48
2023-04-22T09:21:21.551Z,13.53
2023-04-22T09:22:21.539Z,13.51
2023-04-22T09:23:21.525Z,13.66
2023-04-22T09:24:21.527Z,13.59
2023-04-22T09:25:21.531Z,13.54
2023-04-22T09:26:21.513Z,13.24
2023-04-22T09:27:21.483Z,12.62
2023-04-22T09:28:21.491Z,12.38
2023-04-22T09:29:21.496Z,12.55
2023-04-22T09:30:21.462Z,12.89
2023-04-22T09:31:21.488Z,12.89
2023-04-22T09:32:21.545Z,13.03
2023-04-22T09:33:21.429Z,13.04
2023-04-22T09:34:21.419Z,12.61
2023-04-22T09:35:21.424Z,12.56
2023-04-22T09:36:21.386Z,12.58
2023-04-22T09:37:21.383Z,12.54
2023-04-22T09:38:21.363Z,12.73
2023-04-22T09:39:21.359Z,12.91
2023-04-22T09:40:21.346Z,13.07
2023-04-22T09:41:21.345Z,13.10
2023-04-22T09:42:21.322Z,13.31
2023-04-22T09:43:21.332Z,13.57
2023-04-22T09:44:21.306Z,13.65
2023-04-22T09:45:21.314Z,13.68
2023-04-22T09:46:21.347Z,13.84
2023-04-22T09:47:21.301Z,14.06
2023-04-22T09:48:21.261Z,14.06
2023-04-22T09:49:21.259Z,14.08
2023-04-22T09:50:21.246Z,13.94
2023-04-22T09:51:21.230Z,13.69
2023-04-22T09:52:21.216Z,13.93
2023-04-22T09:53:21.222Z,13.73
2023-04-22T09:54:21.200Z,13.69
2023-04-22T09:55:21.188Z,14.05
2023-04-22T09:56:21.169Z,13.96
2023-04-22T09:57:21.161Z,14.12
2023-04-22T09:58:21.161Z,14.06
2023-04-22T09:59:21.172Z,14.30
2023-04-22T10:00:21.139Z,14.42
2023-04-22T10:01:21.213Z,14.52
2023-04-22T10:02:21.174Z,14.49
2023-04-22T10:03:21.159Z,14.48
2023-04-22T10:04:21.103Z,14.34
2023-04-22T10:05:21.084Z,14.54
2023-04-22T10:06:21.061Z,14.66
2023-04-22T10:07:21.057Z,14.69
2023-04-22T10:08:21.064Z,14.69
2023-04-22T10:09:21.036Z,14.66
2023-04-22T10:10:21.060Z,14.56
2023-04-22T10:11:21.022Z,14.63
2023-04-22T10:12:32.917Z,14.57
2023-04-22T10:13:21.987Z,14.69
2023-04-22T10:14:20.976Z,14.29
2023-04-22T10:15:20.972Z,14.60
2023-04-22T10:16:20.985Z,14.71
2023-04-22T10:17:21.016Z,14.75
2023-04-22T10:18:20.941Z,15.23
2023-04-22T10:19:20.920Z,15.34
2023-04-22T10:20:20.910Z,15.40
2023-04-22T10:21:20.901Z,15.40
2023-04-22T10:22:20.920Z,15.37
2023-04-22T10:23:20.873Z,15.07
2023-04-22T10:24:20.905Z,15.11
2023-04-22T10:25:20.938Z,15.18
2023-04-22T10:26:20.848Z,15.35
2023-04-22T10:27:20.836Z,15.31
2023-04-22T10:28:20.831Z,15.35
2023-04-22T10:29:20.817Z,14.97
2023-04-22T10:30:20.808Z,14.49
2023-04-22T10:31:20.850Z,14.66
2023-04-22T10:32:20.859Z,14.67
2023-04-22T10:33:20.807Z,14.82
2023-04-22T10:34:20.775Z,14.56
2023-04-22T10:35:20.763Z,14.35
2023-04-22T10:36:20.732Z,14.36
2023-04-22T10:37:20.736Z,14.74
2023-04-22T10:38:20.723Z,14.61
2023-04-22T10:39:20.766Z,14.41
2023-04-22T10:40:20.704Z,14.34
2023-04-22T10:41:20.682Z,14.26
2023-04-22T10:42:20.668Z,14.48
2023-04-22T10:43:20.684Z,14.64
2023-04-22T10:44:20.650Z,14.74
2023-04-22T10:45:20.639Z,14.93
2023-04-22T10:46:20.663Z,15.07
2023-04-22T10:47:20.622Z,15.30
2023-04-22T10:48:20.625Z,15.78
2023-04-22T10:49:20.659Z,15.58
2023-04-22T10:50:20.588Z,15.48
2023-04-22T10:51:20.573Z,15.66
2023-04-22T10:52:20.564Z,15.58
2023-04-22T10:53:20.557Z,15.51
2023-04-22T10:54:20.553Z,15.52
2023-04-22T10:55:20.536Z,15.81
2023-04-22T10:56:20.518Z,15.59
2023-04-22T10:57:20.516Z,15.58
2023-04-22T10:58:20.497Z,15.95
2023-04-22T10:59:20.498Z,15.95
2023-04-22T11:00:20.492Z,15.96
2023-04-22T11:01:20.526Z,15.84
2023-04-22T11:02:20.479Z,15.64
2023-04-22T11:03:20.594Z,15.78
2023-04-22T11:04:20.801Z,15.95
2023-04-22T11:05:20.499Z,16.14
2023-04-22T11:06:20.416Z,16.30
2023-04-22T11:07:20.477Z,16.66
2023-04-22T11:08:20.396Z,16.59
2023-04-22T11:09:20.394Z,16.44
2023-04-22T11:10:20.377Z,16.36
2023-04-22T11:11:20.376Z,16.30
2023-04-22T11:12:20.356Z,16.36
2023-04-22T11:13:20.339Z,16.22
2023-04-22T11:14:20.352Z,15.93
2023-04-22T11:15:20.402Z,16.37
2023-04-22T11:16:22.052Z,16.66
2023-04-22T11:17:20.299Z,16.65
2023-04-22T11:18:20.287Z,17.02
2023-04-22T11:19:20.296Z,17.05
2023-04-22T11:20:20.264Z,16.73
2023-04-22T11:21:20.292Z,16.59
2023-04-22T11:22:20.251Z,16.52
2023-04-22T11:23:20.242Z,16.98
2023-04-22T11:24:20.221Z,17.35
2023-04-22T11:25:20.216Z,17.62
2023-04-22T11:26:20.203Z,17.30
2023-04-22T11:27:20.184Z,17.35
2023-04-22T11:28:21.583Z,17.09
2023-04-22T11:29:20.164Z,16.75
2023-04-22T11:30:20.166Z,16.69
2023-04-22T11:31:20.184Z,17.07
2023-04-22T11:32:20.129Z,17.40
2023-04-22T11:33:20.118Z,17.38
2023-04-22T11:34:20.134Z,17.18
2023-04-22T11:35:20.095Z,17.18
2023-04-22T11:36:20.098Z,17.40
2023-04-22T11:37:20.104Z,17.53
2023-04-22T11:38:20.069Z,17.32
2023-04-22T11:39:20.057Z,17.76
2023-04-22T11:40:28.923Z,17.46
2023-04-22T11:41:21.039Z,17.39
2023-04-22T11:42:20.026Z,17.33
2023-04-22T11:43:20.020Z,17.33
2023-04-22T11:44:20.006Z,17.53
2023-04-22T11:45:19.984Z,17.63
2023-04-22T11:46:21.142Z,17.54
2023-04-22T11:47:19.962Z,17.63
2023-04-22T11:48:19.965Z,17.42
2023-04-22T11:49:19.948Z,17.51
2023-04-22T11:50:19.936Z,17.43
2023-04-22T11:51:19.922Z,17.47
2023-04-22T11:52:21.278Z,17.87
2023-04-22T11:53:19.954Z,17.84
2023-04-22T11:54:19.896Z,17.49
2023-04-22T11:55:19.895Z,17.55
2023-04-22T11:56:19.867Z,17.95
2023-04-22T11:57:19.858Z,18.25
2023-04-22T11:58:19.851Z,18.19
2023-04-22T11:59:19.840Z,18.20
2023-04-22T12:00:19.848Z,17.86
2023-04-22T12:01:19.819Z,18.05
2023-04-22T12:02:19.886Z,18.23
2023-04-22T12:03:19.985Z,17.73
2023-04-22T12:04:19.814Z,17.70
2023-04-22T12:05:19.799Z,17.74
2023-04-22T12:06:19.761Z,18.04
2023-04-22T12:07:19.752Z,18.02
2023-04-22T12:08:19.730Z,18.13
2023-04-22T12:09:19.764Z,18.16
2023-04-22T12:10:19.738Z,18.10
2023-04-22T12:11:19.705Z,17.81
2023-04-22T12:12:19.694Z,17.91
2023-04-22T12:13:19.695Z,17.94
2023-04-22T12:14:19.695Z,18.01
2023-04-22T12:15:19.669Z,18.31
2023-04-22T12:16:20.178Z,18.36
2023-04-22T12:17:19.670Z,18.16
2023-04-22T12:18:19.630Z,17.77
2023-04-22T12:19:19.612Z,17.87
2023-04-22T12:20:19.622Z,18.28
2023-04-22T12:21:19.607Z,18.16
2023-04-22T12:22:19.590Z,18.26
2023-04-22T12:23:19.574Z,18.42
2023-04-22T12:24:19.565Z,18.66
2023-04-22T12:25:19.578Z,18.71
2023-04-22T12:26:19.559Z,18.72
2023-04-22T12:27:19.534Z,18.39
2023-04-22T12:28:19.524Z,18.31
2023-04-22T12:29:19.532Z,18.42
2023-04-22T12:30:19.505Z,18.66
2023-04-22T12:31:19.546Z,18.83
2023-04-22T12:32:19.484Z,18.74
2023-04-22T12:33:19.469Z,18.59
2023-04-22T12:34:19.469Z,18.62
2023-04-22T12:35:19.471Z,18.65
2023-04-22T12:36:19.441Z,18.59
2023-04-22T12:37:19.430Z,18.60
2023-04-22T12:38:19.424Z,18.76
2023-04-22T12:39:19.409Z,19.06
2023-04-22T12:40:19.393Z,18.99
2023-04-22T12:41:19.425Z,18.84
2023-04-22T12:42:19.376Z,18.89
2023-04-22T12:43:19.361Z,18.60
2023-04-22T12:44:19.355Z,18.69
2023-04-22T12:45:19.337Z,18.90
2023-04-22T12:46:19.385Z,18.71
2023-04-22T12:47:19.445Z,18.87
2023-04-22T12:48:19.323Z,18.72
2023-04-22T12:49:19.309Z,18.66
2023-04-22T12:50:19.286Z,18.82
2023-04-22T12:51:19.293Z,19.12
2023-04-22T12:52:19.283Z,19.30
2023-04-22T12:53:19.273Z,19.34
2023-04-22T12:54:19.267Z,19.40
2023-04-22T12:55:19.244Z,19.01
2023-04-22T12:56:19.243Z,18.97
2023-04-22T12:57:19.244Z,18.65
2023-04-22T12:58:19.224Z,18.28
2023-04-22T12:59:19.207Z,18.39
2023-04-22T13:00:19.178Z,18.56
2023-04-22T13:01:19.190Z,18.44
2023-04-22T13:02:19.245Z,18.23
2023-04-22T13:03:19.301Z,18.53
2023-04-22T13:04:19.205Z,18.51
2023-04-22T13:05:19.131Z,18.54
2023-04-22T13:06:19.111Z,18.39
2023-04-22T13:07:19.101Z,18.41
2023-04-22T13:08:19.112Z,18.25